sensor_id;sensor_type;location;lat;lon;timestamp;pressure;altitude;pressure_sealevel;temperature;humidity
7052;BME280;3567;52.444;13.556;2023-06-26T00:00:10;101256.97;;;18.02;100.00
7052;BME280;3567;52.444;13.556;2023-06-26T00:02:36;101250.72;;;18.01;100.00
7052;BME280;3567;52.444;13.556;2023-06-26T00:05:01;101240.97;;;18.00;100.00
7052;BME280;3567;52.444;13.556;2023-06-26T00:07:30;101241.22;;;17.99;100.00
7052;BME280;3567;52.444;13.556;2023-06-26T00:09:57;101248.53;;;17.98;100.00
7052;BME280;3567;52.444;13.556;2023-06-26T00:12:22;101247.19;;;17.96;100.00
7052;BME280;3567;52.444;13.556;2023-06-26T00:14:48;101245.28;;;17.91;100.00
7052;BME280;3567;52.444;13.556;2023-06-26T00:17:15;101243.34;;;17.87;100.00
7052;BME280;3567;52.444;13.556;2023-06-26T00:19:40;101243.88;;;17.84;100.00
7052;BME280;3567;52.444;13.556;2023-06-26T00:22:05;101244.41;;;17.80;100.00
7052;BME280;3567;52.444;13.556;2023-06-26T00:24:31;101244.41;;;17.80;100.00
7052;BME280;3567;52.444;13.556;2023-06-26T00:26:56;101243.59;;;17.80;100.00
7052;BME280;3567;52.444;13.556;2023-06-26T00:29:23;101237.63;;;17.78;100.00
7052;BME280;3567;52.444;13.556;2023-06-26T00:31:48;101235.16;;;17.76;100.00
7052;BME280;3567;52.444;13.556;2023-06-26T00:34:13;101236.53;;;17.74;100.00
7052;BME280;3567;52.444;13.556;2023-06-26T00:36:40;101234.31;;;17.71;100.00
7052;BME280;3567;52.444;13.556;2023-06-26T00:39:09;101238.91;;;17.70;100.00
7052;BME280;3567;52.444;13.556;2023-06-26T00:41:36;101237.53;;;17.68;100.00
7052;BME280;3567;52.444;13.556;2023-06-26T00:44:02;101238.63;;;17.67;100.00
7052;BME280;3567;52.444;13.556;2023-06-26T00:46:27;101230.22;;;17.63;100.00
7052;BME280;3567;52.444;13.556;2023-06-26T00:48:54;101232.09;;;17.63;100.00
7052;BME280;3567;52.444;13.556;2023-06-26T00:51:20;101224.50;;;17.60;100.00
7052;BME280;3567;52.444;13.556;2023-06-26T00:53:45;101222.88;;;17.59;100.00
7052;BME280;3567;52.444;13.556;2023-06-26T00:56:11;101222.59;;;17.60;100.00
7052;BME280;3567;52.444;13.556;2023-06-26T00:58:37;101229.09;;;17.59;100.00
7052;BME280;3567;52.444;13.556;2023-06-26T01:01:02;101222.31;;;17.57;100.00
7052;BME280;3567;52.444;13.556;2023-06-26T01:03:30;101222.56;;;17.55;100.00
7052;BME280;3567;52.444;13.556;2023-06-26T01:05:58;101221.75;;;17.54;100.00
7052;BME280;3567;52.444;13.556;2023-06-26T01:08:25;101224.97;;;17.51;100.00
7052;BME280;3567;52.444;13.556;2023-06-26T01:10:51;101219.56;;;17.51;100.00
7052;BME280;3567;52.444;13.556;2023-06-26T01:13:17;101211.72;;;17.50;100.00
7052;BME280;3567;52.444;13.556;2023-06-26T01:15:42;101215.25;;;17.50;100.00
7052;BME280;3567;52.444;13.556;2023-06-26T01:18:08;101215.50;;;17.49;100.00
7052;BME280;3567;52.444;13.556;2023-06-26T01:20:37;101215.22;;;17.45;100.00
7052;BME280;3567;52.444;13.556;2023-06-26T01:23:31;101213.84;;;17.43;100.00
7052;BME280;3567;52.444;13.556;2023-06-26T01:28:39;101215.75;;;17.42;100.00
7052;BME280;3567;52.444;13.556;2023-06-26T01:31:07;101205.97;;;17.41;100.00
7052;BME280;3567;52.444;13.556;2023-06-26T01:33:33;101204.91;;;17.42;100.00
7052;BME280;3567;52.444;13.556;2023-06-26T01:36:00;101201.91;;;17.39;100.00
7052;BME280;3567;52.444;13.556;2023-06-26T01:38:25;101203.00;;;17.38;100.00
7052;BME280;3567;52.444;13.556;2023-06-26T01:40:51;101197.56;;;17.38;100.00
7052;BME280;3567;52.444;13.556;2023-06-26T01:43:53;101192.16;;;17.38;100.00
7052;BME280;3567;52.444;13.556;2023-06-26T01:46:27;101193.25;;;17.37;100.00
7052;BME280;3567;52.444;13.556;2023-06-26T01:51:30;101186.75;;;17.38;100.00
7052;BME280;3567;52.444;13.556;2023-06-26T01:53:57;101186.97;;;17.36;100.00
7052;BME280;3567;52.444;13.556;2023-06-26T01:56:23;101187.53;;;17.33;100.00
7052;BME280;3567;52.444;13.556;2023-06-26T01:58:50;101186.16;;;17.31;100.00
7052;BME280;3567;52.444;13.556;2023-06-26T02:01:20;101188.31;;;17.28;100.00
7052;BME280;3567;52.444;13.556;2023-06-26T02:03:45;101185.88;;;17.27;100.00
7052;BME280;3567;52.444;13.556;2023-06-26T02:06:11;101178.25;;;17.24;100.00
7052;BME280;3567;52.444;13.556;2023-06-26T02:08:36;101176.38;;;17.24;100.00
7052;BME280;3567;52.444;13.556;2023-06-26T02:11:01;101182.06;;;17.23;100.00
7052;BME280;3567;52.444;13.556;2023-06-26T02:13:27;101185.31;;;17.25;100.00
7052;BME280;3567;52.444;13.556;2023-06-26T02:15:52;101183.41;;;17.25;100.00
7052;BME280;3567;52.444;13.556;2023-06-26T02:18:17;101184.78;;;17.28;100.00
7052;BME280;3567;52.444;13.556;2023-06-26T02:20:43;101175.84;;;17.27;100.00
7052;BME280;3567;52.444;13.556;2023-06-26T02:23:09;101174.22;;;17.26;100.00
7052;BME280;3567;52.444;13.556;2023-06-26T02:25:35;101178.00;;;17.25;100.00
7052;BME280;3567;52.444;13.556;2023-06-26T02:28:00;101175.56;;;17.24;100.00
7052;BME280;3567;52.444;13.556;2023-06-26T02:30:25;101173.13;;;17.22;100.00
7052;BME280;3567;52.444;13.556;2023-06-26T02:32:51;101178.53;;;17.22;100.00
7052;BME280;3567;52.444;13.556;2023-06-26T02:35:16;101170.41;;;17.22;100.00
7052;BME280;3567;52.444;13.556;2023-06-26T02:37:41;101178.53;;;17.22;100.00
7052;BME280;3567;52.444;13.556;2023-06-26T02:40:07;101176.34;;;17.19;100.00
7052;BME280;3567;52.444;13.556;2023-06-26T02:42:35;101179.03;;;17.19;100.00
7052;BME280;3567;52.444;13.556;2023-06-26T02:45:00;101175.78;;;17.17;100.00
7052;BME280;3567;52.444;13.556;2023-06-26T02:47:25;101172.53;;;17.15;100.00
7052;BME280;3567;52.444;13.556;2023-06-26T02:49:51;101175.50;;;17.14;100.00
7052;BME280;3567;52.444;13.556;2023-06-26T02:52:16;101171.44;;;17.11;100.00
7052;BME280;3567;52.444;13.556;2023-06-26T02:54:41;101169.81;;;17.10;100.00
7052;BME280;3567;52.444;13.556;2023-06-26T02:57:07;101170.63;;;17.11;100.00
7052;BME280;3567;52.444;13.556;2023-06-26T02:59:32;101172.75;;;17.09;100.00
7052;BME280;3567;52.444;13.556;2023-06-26T03:01:58;101166.53;;;17.08;100.00
7052;BME280;3567;52.444;13.556;2023-06-26T03:04:24;101165.97;;;17.06;100.00
7052;BME280;3567;52.444;13.556;2023-06-26T03:06:49;101160.00;;;17.04;100.00
7052;BME280;3567;52.444;13.556;2023-06-26T03:09:14;101161.88;;;17.03;100.00
7052;BME280;3567;52.444;13.556;2023-06-26T03:11:41;101158.38;;;17.03;100.00
7052;BME280;3567;52.444;13.556;2023-06-26T03:14:06;101154.84;;;17.02;100.00
7052;BME280;3567;52.444;13.556;2023-06-26T03:16:32;101157.03;;;17.00;100.00
7052;BME280;3567;52.444;13.556;2023-06-26T03:18:57;101149.72;;;17.01;100.00
7052;BME280;3567;52.444;13.556;2023-06-26T03:21:26;101148.09;;;17.00;100.00
7052;BME280;3567;52.444;13.556;2023-06-26T03:23:53;101142.66;;;17.00;100.00
7052;BME280;3567;52.444;13.556;2023-06-26T03:26:19;101148.09;;;17.00;100.00
7052;BME280;3567;52.444;13.556;2023-06-26T03:28:44;101142.66;;;17.00;100.00
7052;BME280;3567;52.444;13.556;2023-06-26T03:31:10;101147.00;;;17.01;100.00
7052;BME280;3567;52.444;13.556;2023-06-26T03:33:37;101142.41;;;17.01;100.00
7052;BME280;3567;52.444;13.556;2023-06-26T03:36:13;101140.50;;;17.02;100.00
7052;BME280;3567;52.444;13.556;2023-06-26T03:38:40;101142.94;;;17.03;100.00
7052;BME280;3567;52.444;13.556;2023-06-26T03:41:23;101138.34;;;17.04;100.00
7052;BME280;3567;52.444;13.556;2023-06-26T03:43:49;101141.34;;;17.08;100.00
7052;BME280;3567;52.444;13.556;2023-06-26T03:46:14;101140.56;;;17.12;100.00
7052;BME280;3567;52.444;13.556;2023-06-26T03:48:39;101140.59;;;17.17;100.00
7052;BME280;3567;52.444;13.556;2023-06-26T03:51:10;101140.63;;;17.22;100.00
7052;BME280;3567;52.444;13.556;2023-06-26T03:53:35;101142.28;;;17.28;100.00
7052;BME280;3567;52.444;13.556;2023-06-26T03:56:00;101138.50;;;17.35;100.00
7052;BME280;3567;52.444;13.556;2023-06-26T03:58:27;101132.84;;;17.41;100.00
7052;BME280;3567;52.444;13.556;2023-06-26T04:00:53;101128.56;;;17.50;100.00
7052;BME280;3567;52.444;13.556;2023-06-26T04:03:22;101128.88;;;17.59;100.00
7052;BME280;3567;52.444;13.556;2023-06-26T04:05:49;101134.88;;;17.71;100.00
7052;BME280;3567;52.444;13.556;2023-06-26T04:08:15;101140.66;;;17.85;100.00
7052;BME280;3567;52.444;13.556;2023-06-26T04:10:48;101139.31;;;18.03;100.00
7052;BME280;3567;52.444;13.556;2023-06-26T04:13:19;101133.94;;;18.23;100.00
7052;BME280;3567;52.444;13.556;2023-06-26T04:16:05;101137.72;;;18.48;100.00
7052;BME280;3567;52.444;13.556;2023-06-26T04:18:32;101134.47;;;18.66;100.00
7052;BME280;3567;52.444;13.556;2023-06-26T04:21:07;101135.56;;;18.86;100.00
7052;BME280;3567;52.444;13.556;2023-06-26T04:23:33;101131.19;;;19.05;100.00
7052;BME280;3567;52.444;13.556;2023-06-26T04:26:00;101135.75;;;19.20;100.00
7052;BME280;3567;52.444;13.556;2023-06-26T04:28:30;101131.09;;;19.35;100.00
7052;BME280;3567;52.444;13.556;2023-06-26T04:30:55;101134.84;;;19.50;100.00
7052;BME280;3567;52.444;13.556;2023-06-26T04:33:21;101125.03;;;19.59;100.00
7052;BME280;3567;52.444;13.556;2023-06-26T04:35:46;101129.91;;;19.67;100.00
7052;BME280;3567;52.444;13.556;2023-06-26T04:38:14;101138.25;;;19.76;100.00
7052;BME280;3567;52.444;13.556;2023-06-26T04:40:41;101130.88;;;19.81;100.00
7052;BME280;3567;52.444;13.556;2023-06-26T04:43:08;101129.78;;;19.87;100.00
7052;BME280;3567;52.444;13.556;2023-06-26T04:45:34;101118.88;;;19.93;100.00
7052;BME280;3567;52.444;13.556;2023-06-26T04:48:02;101121.00;;;20.01;100.00
7052;BME280;3567;52.444;13.556;2023-06-26T04:50:30;101120.97;;;20.06;100.00
7052;BME280;3567;52.444;13.556;2023-06-26T04:53:07;101121.44;;;20.13;100.00
7052;BME280;3567;52.444;13.556;2023-06-26T04:55:33;101120.34;;;20.19;100.00
7052;BME280;3567;52.444;13.556;2023-06-26T04:58:04;101119.72;;;20.27;100.00
7052;BME280;3567;52.444;13.556;2023-06-26T05:00:33;101121.03;;;20.35;100.00
7052;BME280;3567;52.444;13.556;2023-06-26T05:03:01;101124.50;;;20.40;100.00
7052;BME280;3567;52.444;13.556;2023-06-26T05:05:29;101111.41;;;20.48;100.00
7052;BME280;3567;52.444;13.556;2023-06-26T05:07:57;101120.06;;;20.55;100.00
7052;BME280;3567;52.444;13.556;2023-06-26T05:10:24;101121.06;;;20.64;100.00
7052;BME280;3567;52.444;13.556;2023-06-26T05:12:53;101129.44;;;20.73;100.00
7052;BME280;3567;52.444;13.556;2023-06-26T05:15:18;101129.59;;;20.81;100.00
7052;BME280;3567;52.444;13.556;2023-06-26T05:17:45;101125.47;;;20.89;100.00
7052;BME280;3567;52.444;13.556;2023-06-26T05:20:11;101125.63;;;20.98;100.00
7052;BME280;3567;52.444;13.556;2023-06-26T05:22:38;101126.09;;;21.05;100.00
7052;BME280;3567;52.444;13.556;2023-06-26T05:25:04;101122.22;;;21.11;100.00
7052;BME280;3567;52.444;13.556;2023-06-26T05:27:32;101116.72;;;21.16;100.00
7052;BME280;3567;52.444;13.556;2023-06-26T05:30:00;101108.19;;;21.23;99.63
7052;BME280;3567;52.444;13.556;2023-06-26T05:32:26;101110.56;;;21.29;98.61
7052;BME280;3567;52.444;13.556;2023-06-26T05:34:54;101115.09;;;21.39;98.11
7052;BME280;3567;52.444;13.556;2023-06-26T05:37:21;101108.78;;;21.43;97.18
7052;BME280;3567;52.444;13.556;2023-06-26T05:39:50;101098.63;;;21.49;96.70
7052;BME280;3567;52.444;13.556;2023-06-26T05:42:16;101103.44;;;21.57;96.06
7052;BME280;3567;52.444;13.556;2023-06-26T05:44:41;101095.63;;;21.69;96.75
7052;BME280;3567;52.444;13.556;2023-06-26T05:47:10;101090.22;;;21.83;96.50
7052;BME280;3567;52.444;13.556;2023-06-26T05:49:37;101083.63;;;21.89;96.01
7052;BME280;3567;52.444;13.556;2023-06-26T05:52:04;101083.25;;;21.96;95.43
7052;BME280;3567;52.444;13.556;2023-06-26T05:54:29;101077.97;;;22.00;95.05
7052;BME280;3567;52.444;13.556;2023-06-26T05:56:57;101083.97;;;22.02;94.22
7052;BME280;3567;52.444;13.556;2023-06-26T05:59:51;101079.91;;;21.99;92.90
7052;BME280;3567;52.444;13.556;2023-06-26T06:02:17;101079.63;;;22.01;92.80
7052;BME280;3567;52.444;13.556;2023-06-26T06:04:43;101073.28;;;22.05;92.91
7052;BME280;3567;52.444;13.556;2023-06-26T06:07:09;101074.28;;;22.09;92.89
7052;BME280;3567;52.444;13.556;2023-06-26T06:09:35;101076.75;;;22.11;92.97
7052;BME280;3567;52.444;13.556;2023-06-26T06:12:05;101072.03;;;22.16;91.93
7052;BME280;3567;52.444;13.556;2023-06-26T06:14:34;101068.91;;;22.23;91.06
7052;BME280;3567;52.444;13.556;2023-06-26T06:17:02;101072.59;;;22.32;90.34
7052;BME280;3567;52.444;13.556;2023-06-26T06:19:29;101070.78;;;22.41;89.66
7052;BME280;3567;52.444;13.556;2023-06-26T06:21:54;101068.75;;;22.47;88.70
7052;BME280;3567;52.444;13.556;2023-06-26T06:24:21;101074.25;;;22.61;87.98
7052;BME280;3567;52.444;13.556;2023-06-26T06:30:10;101066.41;;;23.00;86.19
7052;BME280;3567;52.444;13.556;2023-06-26T06:32:38;101067.25;;;23.01;85.04
7052;BME280;3567;52.444;13.556;2023-06-26T06:35:04;101065.50;;;23.05;85.05
7052;BME280;3567;52.444;13.556;2023-06-26T06:37:35;101061.75;;;23.15;83.71
7052;BME280;3567;52.444;13.556;2023-06-26T06:40:01;101061.34;;;23.21;82.46
7052;BME280;3567;52.444;13.556;2023-06-26T06:42:26;101067.22;;;23.29;81.69
7052;BME280;3567;52.444;13.556;2023-06-26T06:44:52;101070.94;;;23.33;81.83
7052;BME280;3567;52.444;13.556;2023-06-26T06:47:17;101063.44;;;23.38;82.15
7052;BME280;3567;52.444;13.556;2023-06-26T06:49:42;101060.91;;;23.42;81.86
7052;BME280;3567;52.444;13.556;2023-06-26T06:52:08;101061.59;;;23.47;80.90
7052;BME280;3567;52.444;13.556;2023-06-26T06:54:51;101057.63;;;23.53;80.22
7052;BME280;3567;52.444;13.556;2023-06-26T06:57:16;101057.44;;;23.64;80.69
7052;BME280;3567;52.444;13.556;2023-06-26T06:59:42;101055.13;;;23.71;79.77
7052;BME280;3567;52.444;13.556;2023-06-26T07:02:07;101048.88;;;23.79;79.56
7052;BME280;3567;52.444;13.556;2023-06-26T07:04:32;101057.34;;;23.91;78.47
7052;BME280;3567;52.444;13.556;2023-06-26T07:06:58;101047.78;;;24.02;78.53
7052;BME280;3567;52.444;13.556;2023-06-26T07:09:23;101054.31;;;24.15;77.44
7052;BME280;3567;52.444;13.556;2023-06-26T07:11:49;101048.06;;;24.23;76.37
7052;BME280;3567;52.444;13.556;2023-06-26T07:14:17;101043.44;;;24.33;75.86
7052;BME280;3567;52.444;13.556;2023-06-26T07:16:45;101044.84;;;24.44;75.01
7052;BME280;3567;52.444;13.556;2023-06-26T07:19:14;101037.78;;;24.51;73.55
7052;BME280;3567;52.444;13.556;2023-06-26T07:21:39;101035.88;;;24.61;74.29
7052;BME280;3567;52.444;13.556;2023-06-26T07:24:06;101034.00;;;24.70;73.55
7052;BME280;3567;52.444;13.556;2023-06-26T07:26:32;101028.56;;;24.78;73.01
7052;BME280;3567;52.444;13.556;2023-06-26T07:28:58;101019.88;;;24.85;72.86
7052;BME280;3567;52.444;13.556;2023-06-26T07:31:23;101027.00;;;24.95;73.01
7052;BME280;3567;52.444;13.556;2023-06-26T07:33:48;101024.59;;;25.02;71.32
7052;BME280;3567;52.444;13.556;2023-06-26T07:36:14;101025.94;;;25.13;70.77
7052;BME280;3567;52.444;13.556;2023-06-26T07:38:39;101027.41;;;25.28;70.42
7052;BME280;3567;52.444;13.556;2023-06-26T07:41:04;101026.47;;;25.41;69.64
7052;BME280;3567;52.444;13.556;2023-06-26T07:43:32;101017.75;;;25.56;68.33
7052;BME280;3567;52.444;13.556;2023-06-26T07:45:58;101020.81;;;25.72;67.58
7052;BME280;3567;52.444;13.556;2023-06-26T07:48:24;101014.06;;;25.87;66.05
7052;BME280;3567;52.444;13.556;2023-06-26T07:50:50;101009.38;;;25.96;64.43
7052;BME280;3567;52.444;13.556;2023-06-26T07:53:16;101006.91;;;26.12;64.15
7052;BME280;3567;52.444;13.556;2023-06-26T07:55:41;101007.53;;;26.26;64.14
7052;BME280;3567;52.444;13.556;2023-06-26T07:58:07;100998.13;;;26.45;63.10
7052;BME280;3567;52.444;13.556;2023-06-26T08:00:33;101001.19;;;26.81;61.12
7052;BME280;3567;52.444;13.556;2023-06-26T08:02:58;100990.81;;;27.17;59.58
7052;BME280;3567;52.444;13.556;2023-06-26T08:05:24;100991.69;;;27.29;59.34
7052;BME280;3567;52.444;13.556;2023-06-26T08:07:50;100986.03;;;27.26;59.24
7052;BME280;3567;52.444;13.556;2023-06-26T08:10:15;100990.06;;;27.28;58.50
7052;BME280;3567;52.444;13.556;2023-06-26T08:12:40;100988.44;;;27.48;58.49
7052;BME280;3567;52.444;13.556;2023-06-26T08:15:13;100973.94;;;27.81;57.37
7052;BME280;3567;52.444;13.556;2023-06-26T08:17:38;100981.47;;;28.05;55.87
7052;BME280;3567;52.444;13.556;2023-06-26T08:20:04;100978.94;;;28.12;54.92
7052;BME280;3567;52.444;13.556;2023-06-26T08:22:30;100968.59;;;27.97;52.39
7052;BME280;3567;52.444;13.556;2023-06-26T08:24:56;100969.03;;;27.86;51.76
7052;BME280;3567;52.444;13.556;2023-06-26T08:27:23;100970.03;;;27.82;53.14
7052;BME280;3567;52.444;13.556;2023-06-26T08:29:48;100962.34;;;27.75;52.80
7052;BME280;3567;52.444;13.556;2023-06-26T08:32:13;100971.63;;;27.71;52.88
7052;BME280;3567;52.444;13.556;2023-06-26T08:34:39;100966.56;;;27.73;53.01
7052;BME280;3567;52.444;13.556;2023-06-26T08:37:04;100961.06;;;27.73;50.77
7052;BME280;3567;52.444;13.556;2023-06-26T08:39:30;100966.34;;;27.78;51.94
7052;BME280;3567;52.444;13.556;2023-06-26T08:41:55;100968.69;;;27.88;50.44
7052;BME280;3567;52.444;13.556;2023-06-26T08:44:21;100951.56;;;27.82;49.26
7052;BME280;3567;52.444;13.556;2023-06-26T08:46:53;100948.81;;;27.82;48.13
7052;BME280;3567;52.444;13.556;2023-06-26T08:49:21;100943.09;;;27.87;48.66
7052;BME280;3567;52.444;13.556;2023-06-26T08:51:52;100944.63;;;27.97;47.84
7052;BME280;3567;52.444;13.556;2023-06-26T08:54:27;100945.06;;;27.99;48.38
7052;BME280;3567;52.444;13.556;2023-06-26T08:56:54;100941.16;;;28.00;47.71
7052;BME280;3567;52.444;13.556;2023-06-26T08:59:21;100935.00;;;28.03;47.55
7052;BME280;3567;52.444;13.556;2023-06-26T09:01:46;100928.47;;;28.08;46.87
7052;BME280;3567;52.444;13.556;2023-06-26T09:04:12;100936.59;;;28.16;47.17
7052;BME280;3567;52.444;13.556;2023-06-26T09:06:39;100939.19;;;28.34;47.69
7052;BME280;3567;52.444;13.556;2023-06-26T09:09:04;100937.59;;;28.45;47.38
7052;BME280;3567;52.444;13.556;2023-06-26T09:11:30;100920.91;;;28.54;45.75
7052;BME280;3567;52.444;13.556;2023-06-26T09:13:55;100908.75;;;28.67;46.56
7052;BME280;3567;52.444;13.556;2023-06-26T09:16:27;100913.88;;;28.81;45.85
7052;BME280;3567;52.444;13.556;2023-06-26T09:18:52;100907.22;;;28.94;45.46
7052;BME280;3567;52.444;13.556;2023-06-26T09:21:19;100903.94;;;29.16;46.24
7052;BME280;3567;52.444;13.556;2023-06-26T09:23:45;100904.47;;;29.50;45.01
7052;BME280;3567;52.444;13.556;2023-06-26T09:26:11;100909.97;;;29.62;45.92
7052;BME280;3567;52.444;13.556;2023-06-26T09:28:36;100906.78;;;29.76;45.34
7052;BME280;3567;52.444;13.556;2023-06-26T09:31:07;100897.69;;;29.75;45.78
7052;BME280;3567;52.444;13.556;2023-06-26T09:33:36;100900.81;;;29.74;44.39
7052;BME280;3567;52.444;13.556;2023-06-26T09:36:22;100892.91;;;29.72;43.77
7052;BME280;3567;52.444;13.556;2023-06-26T09:38:48;100897.03;;;29.66;43.68
7052;BME280;3567;52.444;13.556;2023-06-26T09:41:20;100891.53;;;29.66;44.36
7052;BME280;3567;52.444;13.556;2023-06-26T09:43:49;100892.44;;;29.70;44.11
7052;BME280;3567;52.444;13.556;2023-06-26T09:46:25;100886.47;;;29.68;44.55
7052;BME280;3567;52.444;13.556;2023-06-26T09:49:02;100884.03;;;29.67;44.26
7052;BME280;3567;52.444;13.556;2023-06-26T09:51:33;100884.78;;;29.64;44.38
7052;BME280;3567;52.444;13.556;2023-06-26T09:54:00;100882.66;;;29.73;44.35
7052;BME280;3567;52.444;13.556;2023-06-26T09:56:27;100892.06;;;29.88;45.30
7052;BME280;3567;52.444;13.556;2023-06-26T09:58:55;100886.28;;;29.93;44.67
7052;BME280;3567;52.444;13.556;2023-06-26T10:01:22;100889.31;;;29.88;45.69
7052;BME280;3567;52.444;13.556;2023-06-26T10:03:48;100875.97;;;29.90;44.45
7052;BME280;3567;52.444;13.556;2023-06-26T10:06:14;100885.84;;;29.91;46.71
7052;BME280;3567;52.444;13.556;2023-06-26T10:08:43;100878.47;;;29.95;45.78
7052;BME280;3567;52.444;13.556;2023-06-26T10:11:13;100876.13;;;29.97;45.37
7052;BME280;3567;52.444;13.556;2023-06-26T10:13:42;100866.88;;;30.05;43.32
7052;BME280;3567;52.444;13.556;2023-06-26T10:16:12;100860.47;;;30.17;42.75
7052;BME280;3567;52.444;13.556;2023-06-26T10:18:39;100852.72;;;30.22;42.27
7052;BME280;3567;52.444;13.556;2023-06-26T10:21:05;100857.88;;;30.24;43.18
7052;BME280;3567;52.444;13.556;2023-06-26T10:23:32;100851.88;;;30.38;42.82
7052;BME280;3567;52.444;13.556;2023-06-26T10:26:00;100843.63;;;30.57;42.04
7052;BME280;3567;52.444;13.556;2023-06-26T10:28:28;100834.91;;;30.55;39.90
7052;BME280;3567;52.444;13.556;2023-06-26T10:30:55;100841.75;;;30.61;40.65
7052;BME280;3567;52.444;13.556;2023-06-26T10:33:22;100822.00;;;30.63;39.43
7052;BME280;3567;52.444;13.556;2023-06-26T10:35:48;100822.38;;;30.61;39.29
7052;BME280;3567;52.444;13.556;2023-06-26T10:38:14;100818.00;;;30.76;38.97
7052;BME280;3567;52.444;13.556;2023-06-26T10:40:45;100817.53;;;30.93;39.07
7052;BME280;3567;52.444;13.556;2023-06-26T10:43:12;100813.19;;;31.12;39.88
7052;BME280;3567;52.444;13.556;2023-06-26T10:45:46;100810.16;;;31.20;39.37
7052;BME280;3567;52.444;13.556;2023-06-26T10:48:17;100808.41;;;31.32;39.53
7052;BME280;3567;52.444;13.556;2023-06-26T10:50:42;100800.75;;;31.44;38.74
7052;BME280;3567;52.444;13.556;2023-06-26T10:53:12;100800.25;;;31.62;38.58
7052;BME280;3567;52.444;13.556;2023-06-26T10:56:04;100791.44;;;31.79;38.77
7052;BME280;3567;52.444;13.556;2023-06-26T11:03:38;100790.63;;;32.58;38.94
7052;BME280;3567;52.444;13.556;2023-06-26T11:06:19;100779.78;;;33.13;37.46
7052;BME280;3567;52.444;13.556;2023-06-26T11:09:14;100777.09;;;33.61;36.48
7052;BME280;3567;52.444;13.556;2023-06-26T11:11:55;100783.25;;;33.88;36.74
7052;BME280;3567;52.444;13.556;2023-06-26T11:14:25;100779.97;;;34.34;36.08
7052;BME280;3567;52.444;13.556;2023-06-26T11:16:52;100765.41;;;34.62;34.00
7052;BME280;3567;52.444;13.556;2023-06-26T11:19:19;100750.75;;;34.65;33.36
7052;BME280;3567;52.444;13.556;2023-06-26T11:21:44;100758.66;;;34.59;33.83
7052;BME280;3567;52.444;13.556;2023-06-26T11:24:23;100762.63;;;34.55;34.69
7052;BME280;3567;52.444;13.556;2023-06-26T11:26:48;100767.88;;;34.74;34.38
7052;BME280;3567;52.444;13.556;2023-06-26T11:29:14;100753.59;;;34.86;32.66
7052;BME280;3567;52.444;13.556;2023-06-26T11:31:41;100753.25;;;35.02;32.54
7052;BME280;3567;52.444;13.556;2023-06-26T11:34:08;100746.94;;;35.37;32.11
7052;BME280;3567;52.444;13.556;2023-06-26T11:36:38;100738.97;;;35.47;32.63
7052;BME280;3567;52.444;13.556;2023-06-26T11:39:06;100732.59;;;35.60;31.71
7052;BME280;3567;52.444;13.556;2023-06-26T11:41:34;100721.84;;;35.69;32.83
7052;BME280;3567;52.444;13.556;2023-06-26T11:44:02;100723.00;;;35.79;33.35
7052;BME280;3567;52.444;13.556;2023-06-26T11:46:28;100719.03;;;35.87;32.00
7052;BME280;3567;52.444;13.556;2023-06-26T11:48:54;100714.63;;;35.90;31.71
7052;BME280;3567;52.444;13.556;2023-06-26T11:51:23;100716.22;;;36.05;31.38
7052;BME280;3567;52.444;13.556;2023-06-26T11:53:49;100705.09;;;36.02;30.38
7052;BME280;3567;52.444;13.556;2023-06-26T11:56:16;100700.31;;;35.84;30.80
7052;BME280;3567;52.444;13.556;2023-06-26T11:59:15;100693.53;;;36.03;30.69
7052;BME280;3567;52.444;13.556;2023-06-26T12:01:44;100696.66;;;36.16;30.38
7052;BME280;3567;52.444;13.556;2023-06-26T12:04:11;100689.50;;;36.15;31.37
7052;BME280;3567;52.444;13.556;2023-06-26T12:06:41;100677.91;;;36.20;30.63
7052;BME280;3567;52.444;13.556;2023-06-26T12:09:10;100690.28;;;36.19;30.10
7052;BME280;3567;52.444;13.556;2023-06-26T12:11:41;100671.94;;;36.21;29.92
7052;BME280;3567;52.444;13.556;2023-06-26T12:14:07;100673.56;;;36.15;30.94
7052;BME280;3567;52.444;13.556;2023-06-26T12:16:34;100674.69;;;36.29;31.28
7052;BME280;3567;52.444;13.556;2023-06-26T12:19:04;100662.19;;;36.62;30.41
7052;BME280;3567;52.444;13.556;2023-06-26T12:23:59;100648.28;;;36.55;29.49
7052;BME280;3567;52.444;13.556;2023-06-26T12:26:25;100650.75;;;36.31;30.17
7052;BME280;3567;52.444;13.556;2023-06-26T12:28:51;100649.19;;;36.30;30.69
7052;BME280;3567;52.444;13.556;2023-06-26T12:31:19;100656.75;;;36.30;30.50
7052;BME280;3567;52.444;13.556;2023-06-26T12:33:45;100639.66;;;36.20;30.88
7052;BME280;3567;52.444;13.556;2023-06-26T12:36:13;100651.16;;;36.33;29.95
7052;BME280;3567;52.444;13.556;2023-06-26T12:38:40;100642.03;;;36.26;30.12
7052;BME280;3567;52.444;13.556;2023-06-26T12:41:15;100646.34;;;36.37;30.44
7052;BME280;3567;52.444;13.556;2023-06-26T12:43:41;100641.44;;;36.59;29.73
7052;BME280;3567;52.444;13.556;2023-06-26T12:46:10;100635.34;;;36.79;29.07
7052;BME280;3567;52.444;13.556;2023-06-26T12:48:43;100634.44;;;36.30;29.20
7052;BME280;3567;52.444;13.556;2023-06-26T12:51:18;100627.34;;;36.18;30.63
7052;BME280;3567;52.444;13.556;2023-06-26T12:53:44;100628.38;;;36.49;29.67
7052;BME280;3567;52.444;13.556;2023-06-26T12:56:10;100619.44;;;36.72;29.53
7052;BME280;3567;52.444;13.556;2023-06-26T12:58:37;100619.72;;;36.92;30.14
7052;BME280;3567;52.444;13.556;2023-06-26T13:01:05;100620.38;;;37.07;29.26
7052;BME280;3567;52.444;13.556;2023-06-26T13:03:32;100602.19;;;36.88;28.20
7052;BME280;3567;52.444;13.556;2023-06-26T13:05:58;100610.25;;;36.75;29.59
7052;BME280;3567;52.444;13.556;2023-06-26T13:08:24;100606.19;;;36.28;29.13
7052;BME280;3567;52.444;13.556;2023-06-26T13:10:50;100614.78;;;35.67;30.70
7052;BME280;3567;52.444;13.556;2023-06-26T13:13:15;100613.28;;;35.02;30.47